sensor_id;sensor_type;location;lat;lon;timestamp;pressure;altitude;pressure_sealevel;temperature;humidity
6343;BME280;3204;42.698;23.298;2022-10-15T00:01:38;95178.28;;;12.85;80.79
6343;BME280;3204;42.698;23.298;2022-10-15T00:04:03;95187.59;;;12.92;80.58
6343;BME280;3204;42.698;23.298;2022-10-15T00:06:29;95175.88;;;12.92;80.19
6343;BME280;3204;42.698;23.298;2022-10-15T00:08:55;95183.44;;;12.95;79.94
6343;BME280;3204;42.698;23.298;2022-10-15T00:11:23;95174.78;;;12.93;79.60
6343;BME280;3204;42.698;23.298;2022-10-15T00:13:52;95177.00;;;12.91;79.90
6343;BME280;3204;42.698;23.298;2022-10-15T00:16:21;95172.69;;;12.90;79.88
6343;BME280;3204;42.698;23.298;2022-10-15T00:18:48;95173.50;;;12.90;80.37
6343;BME280;3204;42.698;23.298;2022-10-15T00:21:15;95168.69;;;12.96;79.60
6343;BME280;3204;42.698;23.298;2022-10-15T00:23:41;95169.22;;;12.98;79.69
6343;BME280;3204;42.698;23.298;2022-10-15T00:26:16;95157.94;;;12.91;79.47
6343;BME280;3204;42.698;23.298;2022-10-15T00:28:42;95158.09;;;12.94;79.10
6343;BME280;3204;42.698;23.298;2022-10-15T00:31:10;95165.38;;;12.99;79.49
6343;BME280;3204;42.698;23.298;2022-10-15T00:33:37;95159.56;;;12.92;79.73
6343;BME280;3204;42.698;23.298;2022-10-15T00:36:05;95157.69;;;13.01;79.66
6343;BME280;3204;42.698;23.298;2022-10-15T00:38:31;95154.28;;;12.95;79.90
6343;BME280;3204;42.698;23.298;2022-10-15T00:40:56;95147.38;;;12.89;80.55
6343;BME280;3204;42.698;23.298;2022-10-15T00:43:45;95149.13;;;12.77;81.29
6343;BME280;3204;42.698;23.298;2022-10-15T00:46:17;95144.03;;;12.84;81.29
6343;BME280;3204;42.698;23.298;2022-10-15T00:48:47;95147.22;;;12.77;81.52
6343;BME280;3204;42.698;23.298;2022-10-15T00:51:15;95138.88;;;12.74;82.07
6343;BME280;3204;42.698;23.298;2022-10-15T00:53:42;95139.34;;;12.76;82.09
6343;BME280;3204;42.698;23.298;2022-10-15T00:56:08;95139.56;;;12.88;81.85
6343;BME280;3204;42.698;23.298;2022-10-15T00:58:35;95143.56;;;12.90;81.82
6343;BME280;3204;42.698;23.298;2022-10-15T01:01:00;95135.03;;;12.92;81.80
6343;BME280;3204;42.698;23.298;2022-10-15T01:03:26;95133.94;;;12.93;81.85
6343;BME280;3204;42.698;23.298;2022-10-15T01:05:52;95130.72;;;12.91;82.21
6343;BME280;3204;42.698;23.298;2022-10-15T01:08:19;95140.03;;;12.90;82.58
6343;BME280;3204;42.698;23.298;2022-10-15T01:11:04;95144.50;;;12.86;82.85
6343;BME280;3204;42.698;23.298;2022-10-15T01:13:36;95139.38;;;12.84;83.33
6343;BME280;3204;42.698;23.298;2022-10-15T01:16:23;95140.34;;;12.80;83.44
6343;BME280;3204;42.698;23.298;2022-10-15T01:19:05;95132.47;;;12.78;83.80
6343;BME280;3204;42.698;23.298;2022-10-15T01:24:55;95139.19;;;12.72;84.59
6343;BME280;3204;42.698;23.298;2022-10-15T01:27:32;95129.75;;;12.78;84.75
6343;BME280;3204;42.698;23.298;2022-10-15T01:40:28;95139.19;;;12.72;85.63
6343;BME280;3204;42.698;23.298;2022-10-15T01:42:58;95139.19;;;12.72;85.90
6343;BME280;3204;42.698;23.298;2022-10-15T01:45:36;95143.50;;;12.73;85.93
6343;BME280;3204;42.698;23.298;2022-10-15T01:48:10;95132.78;;;12.68;85.97
6343;BME280;3204;42.698;23.298;2022-10-15T01:50:39;95137.91;;;12.70;86.25
6343;BME280;3204;42.698;23.298;2022-10-15T01:53:08;95137.41;;;12.68;86.21
6343;BME280;3204;42.698;23.298;2022-10-15T01:55:36;95135.66;;;12.63;86.61
6343;BME280;3204;42.698;23.298;2022-10-15T01:58:03;95127.47;;;12.55;86.64
6343;BME280;3204;42.698;23.298;2022-10-15T02:00:29;95141.25;;;12.58;86.87
6343;BME280;3204;42.698;23.298;2022-10-15T02:02:59;95129.84;;;12.56;87.04
6343;BME280;3204;42.698;23.298;2022-10-15T02:05:29;95133.56;;;12.60;86.87
6343;BME280;3204;42.698;23.298;2022-10-15T02:10:59;95138.34;;;12.55;87.60
6343;BME280;3204;42.698;23.298;2022-10-15T02:13:55;95134.06;;;12.62;87.18
6343;BME280;3204;42.698;23.298;2022-10-15T02:16:42;95132.09;;;12.54;87.98
6343;BME280;3204;42.698;23.298;2022-10-15T02:21:47;95128.56;;;12.54;87.64
6343;BME280;3204;42.698;23.298;2022-10-15T02:24:24;95135.63;;;12.55;87.70
6343;BME280;3204;42.698;23.298;2022-10-15T02:26:54;95135.31;;;12.56;87.55
6343;BME280;3204;42.698;23.298;2022-10-15T02:29:22;95137.72;;;12.58;87.46
6343;BME280;3204;42.698;23.298;2022-10-15T02:31:50;95140.13;;;12.59;87.20
6343;BME280;3204;42.698;23.298;2022-10-15T02:34:19;95141.91;;;12.64;87.25
6343;BME280;3204;42.698;23.298;2022-10-15T02:36:46;95135.97;;;12.62;87.17
6343;BME280;3204;42.698;23.298;2022-10-15T02:39:16;95141.09;;;12.63;87.38
6343;BME280;3204;42.698;23.298;2022-10-15T02:41:42;95143.00;;;12.63;87.31
6343;BME280;3204;42.698;23.298;2022-10-15T02:44:08;95147.97;;;12.61;87.35
6343;BME280;3204;42.698;23.298;2022-10-15T02:46:33;95147.97;;;12.61;87.45
6343;BME280;3204;42.698;23.298;2022-10-15T02:48:59;95146.03;;;12.61;87.36
6343;BME280;3204;42.698;23.298;2022-10-15T02:51:25;95148.59;;;12.58;87.50
6343;BME280;3204;42.698;23.298;2022-10-15T02:53:50;95142.03;;;12.59;87.58
6343;BME280;3204;42.698;23.298;2022-10-15T02:56:15;95139.50;;;12.62;87.64
6343;BME280;3204;42.698;23.298;2022-10-15T02:58:41;95139.97;;;12.56;87.76
6343;BME280;3204;42.698;23.298;2022-10-15T03:01:06;95140.94;;;12.60;87.70
6343;BME280;3204;42.698;23.298;2022-10-15T03:03:33;95149.25;;;12.55;87.59
6343;BME280;3204;42.698;23.298;2022-10-15T03:05:59;95144.09;;;12.45;88.23
6343;BME280;3204;42.698;23.298;2022-10-15T03:08:24;95140.56;;;12.44;88.23
6343;BME280;3204;42.698;23.298;2022-10-15T03:10:50;95136.72;;;12.54;87.93
6343;BME280;3204;42.698;23.298;2022-10-15T03:13:15;95131.59;;;12.44;88.09
6343;BME280;3204;42.698;23.298;2022-10-15T03:15:41;95132.56;;;12.48;88.35
6343;BME280;3204;42.698;23.298;2022-10-15T03:18:07;95134.16;;;12.49;88.36
6343;BME280;3204;42.698;23.298;2022-10-15T03:20:33;95136.09;;;12.48;88.25
6343;BME280;3204;42.698;23.298;2022-10-15T03:22:58;95144.88;;;12.45;88.49
6343;BME280;3204;42.698;23.298;2022-10-15T03:25:23;95133.97;;;12.37;89.17
6343;BME280;3204;42.698;23.298;2022-10-15T03:27:49;95140.72;;;12.39;88.86
6343;BME280;3204;42.698;23.298;2022-10-15T03:30:17;95143.91;;;12.41;88.72
6343;BME280;3204;42.698;23.298;2022-10-15T03:32:42;95153.31;;;12.35;89.05
6343;BME280;3204;42.698;23.298;2022-10-15T03:35:08;95144.69;;;12.33;89.08
6343;BME280;3204;42.698;23.298;2022-10-15T03:37:34;95152.84;;;12.33;89.23
6343;BME280;3204;42.698;23.298;2022-10-15T03:40:00;95144.50;;;12.30;89.44
6343;BME280;3204;42.698;23.298;2022-10-15T03:42:25;95145.97;;;12.36;89.30
6343;BME280;3204;42.698;23.298;2022-10-15T03:44:51;95150.78;;;12.39;89.21
6343;BME280;3204;42.698;23.298;2022-10-15T03:47:16;95145.34;;;12.39;89.34
6343;BME280;3204;42.698;23.298;2022-10-15T03:49:41;95148.38;;;12.37;89.16
6343;BME280;3204;42.698;23.298;2022-10-15T03:52:07;95151.41;;;12.36;89.47
6343;BME280;3204;42.698;23.298;2022-10-15T03:54:33;95153.63;;;12.34;89.49
6343;BME280;3204;42.698;23.298;2022-10-15T03:56:58;95156.66;;;12.32;89.85
6343;BME280;3204;42.698;23.298;2022-10-15T03:59:24;95160.69;;;12.35;90.36
6343;BME280;3204;42.698;23.298;2022-10-15T04:01:49;95157.31;;;12.29;89.89
6343;BME280;3204;42.698;23.298;2022-10-15T04:04:15;95155.25;;;12.35;89.77
6343;BME280;3204;42.698;23.298;2022-10-15T04:06:40;95161.50;;;12.35;89.72
6343;BME280;3204;42.698;23.298;2022-10-15T04:09:06;95161.19;;;12.37;89.47
6343;BME280;3204;42.698;23.298;2022-10-15T04:11:31;95161.31;;;12.32;89.51
6343;BME280;3204;42.698;23.298;2022-10-15T04:13:57;95156.88;;;12.36;89.04
6343;BME280;3204;42.698;23.298;2022-10-15T04:16:22;95162.31;;;12.36;89.20
6343;BME280;3204;42.698;23.298;2022-10-15T04:18:48;95150.59;;;12.27;89.60
6343;BME280;3204;42.698;23.298;2022-10-15T04:21:14;95160.38;;;12.36;89.34
6343;BME280;3204;42.698;23.298;2022-10-15T04:23:39;95159.06;;;12.34;89.12
6343;BME280;3204;42.698;23.298;2022-10-15T04:26:05;95167.53;;;12.32;89.70
6343;BME280;3204;42.698;23.298;2022-10-15T04:28:31;95168.81;;;12.26;89.60
6343;BME280;3204;42.698;23.298;2022-10-15T04:30:58;95164.19;;;12.27;90.04
6343;BME280;3204;42.698;23.298;2022-10-15T04:33:24;95161.50;;;12.35;89.35
6343;BME280;3204;42.698;23.298;2022-10-15T04:36:12;95158.47;;;12.37;89.16
6343;BME280;3204;42.698;23.298;2022-10-15T04:38:37;95158.47;;;12.37;88.98
6343;BME280;3204;42.698;23.298;2022-10-15T04:41:08;95172.19;;;12.32;89.29
6343;BME280;3204;42.698;23.298;2022-10-15T04:43:35;95169.19;;;12.33;89.28
6343;BME280;3204;42.698;23.298;2022-10-15T04:46:03;95168.81;;;12.26;89.59
6343;BME280;3204;42.698;23.298;2022-10-15T04:48:30;95172.97;;;12.24;89.79
6343;BME280;3204;42.698;23.298;2022-10-15T04:51:17;95181.16;;;12.32;89.84
6343;BME280;3204;42.698;23.298;2022-10-15T04:53:43;95181.47;;;12.31;89.78
6343;BME280;3204;42.698;23.298;2022-10-15T04:56:11;95184.69;;;12.33;90.17
6343;BME280;3204;42.698;23.298;2022-10-15T04:58:38;95185.66;;;12.37;90.03
6343;BME280;3204;42.698;23.298;2022-10-15T05:01:09;95188.25;;;12.42;89.45
6343;BME280;3204;42.698;23.298;2022-10-15T05:03:39;95185.38;;;12.47;89.18
6343;BME280;3204;42.698;23.298;2022-10-15T05:06:10;95189.38;;;12.41;89.52
6343;BME280;3204;42.698;23.298;2022-10-15T05:08:36;95182.63;;;12.38;90.00
6343;BME280;3204;42.698;23.298;2022-10-15T05:11:06;95183.31;;;12.52;89.19
6343;BME280;3204;42.698;23.298;2022-10-15T05:13:32;95187.19;;;12.60;88.76
6343;BME280;3204;42.698;23.298;2022-10-15T05:16:28;95196.34;;;12.64;88.34
6343;BME280;3204;42.698;23.298;2022-10-15T05:18:56;95191.34;;;12.57;88.21
6343;BME280;3204;42.698;23.298;2022-10-15T05:21:23;95193.84;;;12.45;88.49
6343;BME280;3204;42.698;23.298;2022-10-15T05:23:49;95197.41;;;12.54;89.02
6343;BME280;3204;42.698;23.298;2022-10-15T05:26:17;95196.13;;;12.60;88.31
6343;BME280;3204;42.698;23.298;2022-10-15T05:28:44;95205.88;;;12.53;88.70
6343;BME280;3204;42.698;23.298;2022-10-15T05:31:18;95200.78;;;12.60;87.93
6343;BME280;3204;42.698;23.298;2022-10-15T05:33:47;95209.41;;;12.53;87.85
6343;BME280;3204;42.698;23.298;2022-10-15T05:36:16;95209.69;;;12.43;88.19
6343;BME280;3204;42.698;23.298;2022-10-15T05:38:43;95215.59;;;12.45;88.22
6343;BME280;3204;42.698;23.298;2022-10-15T05:41:09;95210.97;;;12.46;87.97
6343;BME280;3204;42.698;23.298;2022-10-15T05:43:35;95218.03;;;12.47;88.12
6343;BME280;3204;42.698;23.298;2022-10-15T05:46:01;95221.06;;;12.54;87.47
6343;BME280;3204;42.698;23.298;2022-10-15T05:48:26;95228.00;;;12.60;87.53
6343;BME280;3204;42.698;23.298;2022-10-15T05:50:52;95233.94;;;12.62;87.17
6343;BME280;3204;42.698;23.298;2022-10-15T05:53:18;95230.88;;;12.55;87.37
6343;BME280;3204;42.698;23.298;2022-10-15T05:55:43;95228.19;;;12.63;86.34
6343;BME280;3204;42.698;23.298;2022-10-15T05:58:09;95231.06;;;12.67;86.51
6343;BME280;3204;42.698;23.298;2022-10-15T06:00:35;95237.19;;;12.72;86.11
6343;BME280;3204;42.698;23.298;2022-10-15T06:03:00;95239.59;;;12.74;86.14
6343;BME280;3204;42.698;23.298;2022-10-15T06:05:26;95235.59;;;12.80;85.64
6343;BME280;3204;42.698;23.298;2022-10-15T06:07:51;95229.19;;;12.84;85.26
6343;BME280;3204;42.698;23.298;2022-10-15T06:10:17;95231.59;;;12.86;85.12
6343;BME280;3204;42.698;23.298;2022-10-15T06:12:48;95231.59;;;12.86;84.84
6343;BME280;3204;42.698;23.298;2022-10-15T06:15:14;95234.47;;;12.81;85.05
6343;BME280;3204;42.698;23.298;2022-10-15T06:17:40;95243.47;;;12.90;85.06
6343;BME280;3204;42.698;23.298;2022-10-15T06:20:06;95232.59;;;12.90;85.49
6343;BME280;3204;42.698;23.298;2022-10-15T06:22:32;95231.31;;;12.96;85.20
6343;BME280;3204;42.698;23.298;2022-10-15T06:24:57;95246.56;;;12.97;85.04
6343;BME280;3204;42.698;23.298;2022-10-15T06:27:23;95245.53;;;12.84;85.44
6343;BME280;3204;42.698;23.298;2022-10-15T06:29:48;95250.34;;;12.87;85.47
6343;BME280;3204;42.698;23.298;2022-10-15T06:32:13;95251.44;;;12.78;84.97
6343;BME280;3204;42.698;23.298;2022-10-15T06:34:39;95252.84;;;12.75;84.99
6343;BME280;3204;42.698;23.298;2022-10-15T06:37:05;95258.31;;;12.75;85.54
6343;BME280;3204;42.698;23.298;2022-10-15T06:39:30;95260.38;;;12.70;86.38
6343;BME280;3204;42.698;23.298;2022-10-15T06:41:56;95259.47;;;12.83;86.41
6343;BME280;3204;42.698;23.298;2022-10-15T06:44:21;95259.81;;;12.90;86.13
6343;BME280;3204;42.698;23.298;2022-10-15T06:46:47;95259.56;;;13.00;85.95
6343;BME280;3204;42.698;23.298;2022-10-15T06:49:12;95255.91;;;13.13;85.47
6343;BME280;3204;42.698;23.298;2022-10-15T06:51:38;95268.41;;;13.22;84.21
6343;BME280;3204;42.698;23.298;2022-10-15T06:54:04;95270.00;;;13.15;83.92
6343;BME280;3204;42.698;23.298;2022-10-15T06:56:29;95262.81;;;13.19;84.35
6343;BME280;3204;42.698;23.298;2022-10-15T06:58:55;95263.47;;;13.24;83.91
6343;BME280;3204;42.698;23.298;2022-10-15T07:01:20;95261.56;;;13.33;83.79
6343;BME280;3204;42.698;23.298;2022-10-15T07:03:49;95263.81;;;13.40;83.70
6343;BME280;3204;42.698;23.298;2022-10-15T07:06:15;95267.66;;;13.39;83.67
6343;BME280;3204;42.698;23.298;2022-10-15T07:08:41;95281.16;;;13.61;83.04
6343;BME280;3204;42.698;23.298;2022-10-15T07:11:07;95280.53;;;13.64;82.37
6343;BME280;3204;42.698;23.298;2022-10-15T07:13:36;95283.25;;;13.72;82.04
6343;BME280;3204;42.698;23.298;2022-10-15T07:16:05;95286.78;;;13.81;81.79
6343;BME280;3204;42.698;23.298;2022-10-15T07:18:31;95285.63;;;13.91;80.87
6343;BME280;3204;42.698;23.298;2022-10-15T07:20:57;95291.25;;;13.86;81.30
6343;BME280;3204;42.698;23.298;2022-10-15T07:23:23;95287.75;;;14.11;80.55
6343;BME280;3204;42.698;23.298;2022-10-15T07:25:48;95280.19;;;14.33;79.74
6343;BME280;3204;42.698;23.298;2022-10-15T07:28:13;95286.22;;;14.56;79.25
6343;BME280;3204;42.698;23.298;2022-10-15T07:30:39;95290.97;;;14.76;77.52
6343;BME280;3204;42.698;23.298;2022-10-15T07:33:05;95292.09;;;14.83;75.96
6343;BME280;3204;42.698;23.298;2022-10-15T07:35:30;95286.97;;;14.82;75.83
6343;BME280;3204;42.698;23.298;2022-10-15T07:37:59;95284.34;;;14.94;75.11
6343;BME280;3204;42.698;23.298;2022-10-15T07:40:25;95300.47;;;15.16;73.86
6343;BME280;3204;42.698;23.298;2022-10-15T07:42:55;95299.97;;;15.22;73.78
6343;BME280;3204;42.698;23.298;2022-10-15T07:45:21;95300.25;;;15.29;73.39
6343;BME280;3204;42.698;23.298;2022-10-15T07:47:47;95302.97;;;15.38;72.65
6343;BME280;3204;42.698;23.298;2022-10-15T07:50:12;95313.59;;;15.31;71.92
6343;BME280;3204;42.698;23.298;2022-10-15T07:52:38;95307.53;;;15.17;72.17
6343;BME280;3204;42.698;23.298;2022-10-15T07:55:03;95303.09;;;15.04;73.13
6343;BME280;3204;42.698;23.298;2022-10-15T07:57:29;95306.00;;;14.99;73.41
6343;BME280;3204;42.698;23.298;2022-10-15T07:59:54;95307.16;;;14.98;73.71
6343;BME280;3204;42.698;23.298;2022-10-15T08:02:20;95306.97;;;15.03;72.96
6343;BME280;3204;42.698;23.298;2022-10-15T08:04:46;95304.75;;;15.25;72.13
6343;BME280;3204;42.698;23.298;2022-10-15T08:07:12;95306.22;;;15.23;71.23
6343;BME280;3204;42.698;23.298;2022-10-15T08:09:37;95312.19;;;15.16;71.14
6343;BME280;3204;42.698;23.298;2022-10-15T08:12:03;95310.66;;;14.98;71.59
6343;BME280;3204;42.698;23.298;2022-10-15T08:14:34;95306.59;;;15.13;71.27
6343;BME280;3204;42.698;23.298;2022-10-15T08:17:03;95303.78;;;15.01;70.86
6343;BME280;3204;42.698;23.298;2022-10-15T08:19:29;95287.47;;;14.75;70.88
6343;BME280;3204;42.698;23.298;2022-10-15T08:21:55;95292.91;;;14.84;71.32
6343;BME280;3204;42.698;23.298;2022-10-15T08:24:21;95291.84;;;15.05;71.34
6343;BME280;3204;42.698;23.298;2022-10-15T08:26:46;95298.03;;;15.23;70.23
6343;BME280;3204;42.698;23.298;2022-10-15T08:29:12;95293.72;;;15.51;69.44
6343;BME280;3204;42.698;23.298;2022-10-15T08:31:38;95300.22;;;15.87;68.19
6343;BME280;3204;42.698;23.298;2022-10-15T08:34:04;95295.03;;;15.94;67.99
6343;BME280;3204;42.698;23.298;2022-10-15T08:36:29;95296.63;;;16.16;67.39
6343;BME280;3204;42.698;23.298;2022-10-15T08:38:55;95285.28;;;16.38;66.96
6343;BME280;3204;42.698;23.298;2022-10-15T08:41:28;95286.25;;;16.75;65.81
6343;BME280;3204;42.698;23.298;2022-10-15T08:43:56;95291.00;;;17.10;64.83
6343;BME280;3204;42.698;23.298;2022-10-15T08:46:44;95289.63;;;17.28;64.09
6343;BME280;3204;42.698;23.298;2022-10-15T08:49:30;95291.72;;;17.43;62.39
6343;BME280;3204;42.698;23.298;2022-10-15T08:54:40;95280.41;;;17.57;62.39
6343;BME280;3204;42.698;23.298;2022-10-15T08:59:51;95292.47;;;18.43;61.09
6343;BME280;3204;42.698;23.298;2022-10-15T09:02:28;95288.47;;;19.27;58.55
6343;BME280;3204;42.698;23.298;2022-10-15T09:08:07;95287.75;;;18.71;57.97
6343;BME280;3204;42.698;23.298;2022-10-15T09:10:46;95281.25;;;18.36;58.77
6343;BME280;3204;42.698;23.298;2022-10-15T09:13:33;95281.72;;;17.99;58.93
6343;BME280;3204;42.698;23.298;2022-10-15T09:16:04;95281.97;;;18.21;59.48
6343;BME280;3204;42.698;23.298;2022-10-15T09:18:36;95280.75;;;18.46;58.24
6343;BME280;3204;42.698;23.298;2022-10-15T09:21:06;95274.94;;;19.06;57.42
6343;BME280;3204;42.698;23.298;2022-10-15T09:23:34;95273.91;;;19.26;56.63
6343;BME280;3204;42.698;23.298;2022-10-15T09:34:54;95264.66;;;19.19;54.71
6343;BME280;3204;42.698;23.298;2022-10-15T09:37:25;95264.63;;;19.03;55.68
6343;BME280;3204;42.698;23.298;2022-10-15T09:40:08;95257.31;;;19.73;54.83
6343;BME280;3204;42.698;23.298;2022-10-15T09:42:41;95263.53;;;20.39;54.04
6343;BME280;3204;42.698;23.298;2022-10-15T09:45:11;95264.94;;;20.71;53.25
6343;BME280;3204;42.698;23.298;2022-10-15T09:47:42;95267.81;;;21.16;51.00
6343;BME280;3204;42.698;23.298;2022-10-15T09:50:11;95263.69;;;20.87;51.41
6343;BME280;3204;42.698;23.298;2022-10-15T09:58:09;95259.63;;;21.23;50.92
6343;BME280;3204;42.698;23.298;2022-10-15T10:01:06;95264.66;;;21.40;49.09
6343;BME280;3204;42.698;23.298;2022-10-15T10:03:34;95260.75;;;21.18;48.50
6343;BME280;3204;42.698;23.298;2022-10-15T10:06:02;95257.06;;;21.33;48.40
6343;BME280;3204;42.698;23.298;2022-10-15T10:08:33;95248.56;;;21.68;48.08
6343;BME280;3204;42.698;23.298;2022-10-15T10:11:04;95257.34;;;21.99;46.92
6343;BME280;3204;42.698;23.298;2022-10-15T10:13:49;95254.09;;;21.94;46.83
6343;BME280;3204;42.698;23.298;2022-10-15T10:16:16;95258.78;;;21.67;47.52
6343;BME280;3204;42.698;23.298;2022-10-15T10:18:43;95255.41;;;21.51;47.76
6343;BME280;3204;42.698;23.298;2022-10-15T10:21:29;95254.66;;;21.32;48.06
6343;BME280;3204;42.698;23.298;2022-10-15T10:23:55;95247.69;;;21.15;48.78
6343;BME280;3204;42.698;23.298;2022-10-15T10:26:25;95247.75;;;20.77;49.44
6343;BME280;3204;42.698;23.298;2022-10-15T10:28:52;95242.41;;;20.27;50.20
6343;BME280;3204;42.698;23.298;2022-10-15T10:31:26;95245.84;;;19.86;50.69
6343;BME280;3204;42.698;23.298;2022-10-15T10:33:53;95243.25;;;19.59;51.21
6343;BME280;3204;42.698;23.298;2022-10-15T10:36:29;95249.38;;;19.21;52.99
6343;BME280;3204;42.698;23.298;2022-10-15T10:39:05;95242.22;;;19.17;53.43
6343;BME280;3204;42.698;23.298;2022-10-15T10:49:46;95229.19;;;18.55;54.93
6343;BME280;3204;42.698;23.298;2022-10-15T10:52:29;95222.94;;;18.55;55.40
6343;BME280;3204;42.698;23.298;2022-10-15T10:55:12;95218.69;;;18.57;54.19
6343;BME280;3204;42.698;23.298;2022-10-15T10:57:54;95229.16;;;18.40;53.75
6343;BME280;3204;42.698;23.298;2022-10-15T11:00:24;95220.13;;;18.39;54.15
6343;BME280;3204;42.698;23.298;2022-10-15T11:02:54;95228.91;;;18.17;53.99
6343;BME280;3204;42.698;23.298;2022-10-15T11:05:25;95220.84;;;17.97;54.45
6343;BME280;3204;42.698;23.298;2022-10-15T11:08:03;95210.03;;;17.88;54.92
6343;BME280;3204;42.698;23.298;2022-10-15T11:10:44;95217.25;;;17.81;55.70
6343;BME280;3204;42.698;23.298;2022-10-15T11:16:05;95209.56;;;17.47;57.05
6343;BME280;3204;42.698;23.298;2022-10-15T11:42:47;95211.50;;;16.98;56.32
6343;BME280;3204;42.698;23.298;2022-10-15T11:50:39;95198.78;;;17.30;56.00
6343;BME280;3204;42.698;23.298;2022-10-15T11:56:03;95203.25;;;17.22;54.76
6343;BME280;3204;42.698;23.298;2022-10-15T11:58:42;95206.00;;;17.22;55.38
6343;BME280;3204;42.698;23.298;2022-10-15T12:01:19;95209.31;;;17.40;55.31
6343;BME280;3204;42.698;23.298;2022-10-15T12:03:52;95209.19;;;17.36;54.96
6343;BME280;3204;42.698;23.298;2022-10-15T12:06:21;95218.22;;;17.37;55.24
6343;BME280;3204;42.698;23.298;2022-10-15T12:08:49;95214.34;;;17.50;55.25
6343;BME280;3204;42.698;23.298;2022-10-15T12:16:40;95218.81;;;17.42;55.21
6343;BME280;3204;42.698;23.298;2022-10-15T12:27:34;95220.38;;;17.19;56.53
6343;BME280;3204;42.698;23.298;2022-10-15T12:32:38;95212.41;;;17.14;56.33
6343;BME280;3204;42.698;23.298;2022-10-15T12:37:43;95218.34;;;17.04;56.92
6343;BME280;3204;42.698;23.298;2022-10-15T12:42:54;95214.03;;;16.91;57.55
6343;BME280;3204;42.698;23.298;2022-10-15T12:45:55;95215.63;;;16.92;57.30
6343;BME280;3204;42.698;23.298;2022-10-15T12:48:30;95213.53;;;17.13;57.37
6343;BME280;3204;42.698;23.298;2022-10-15T12:53:44;95207.13;;;17.33;56.90
6343;BME280;3204;42.698;23.298;2022-10-15T12:56:11;95206.13;;;17.38;57.17
6343;BME280;3204;42.698;23.298;2022-10-15T13:08:49;95211.13;;;17.99;55.62
6343;BME280;3204;42.698;23.298;2022-10-15T13:11:51;95204.09;;;18.14;54.99
6343;BME280;3204;42.698;23.298;2022-10-15T13:14:36;95198.91;;;18.24;55.07
6343;BME280;3204;42.698;23.298;2022-10-15T13:17:13;95194.09;;;18.33;55.01
6343;BME280;3204;42.698;23.298;2022-10-15T13:19:46;95203.56;;;18.36;54.78
6343;BME280;3204;42.698;23.298;2022-10-15T13:22:24;95189.47;;;18.37;54.61
6343;BME280;3204;42.698;23.298;2022-10-15T13:24:50;95192.50;;;18.48;54.23
6343;BME280;3204;42.698;23.298;2022-10-15T13:27:30;95198.47;;;18.65;54.06
6343;BME280;3204;42.698;23.298;2022-10-15T13:29:59;95199.94;;;18.20;54.66
6343;BME280;3204;42.698;23.298;2022-10-15T13:32:27;95194.06;;;18.06;55.36
6343;BME280;3204;42.698;23.298;2022-10-15T13:34:53;95200.13;;;17.99;55.46
6343;BME280;3204;42.698;23.298;2022-10-15T13:37:28;95204.53;;;17.88;55.64
6343;BME280;3204;42.698;23.298;2022-10-15T13:39:55;95202.63;;;18.04;55.49
6343;BME280;3204;42.698;23.298;2022-10-15T13:42:23;95207.22;;;18.28;55.32
6343;BME280;3204;42.698;23.298;2022-10-15T13:45:17;95201.34;;;18.41;54.51
6343;BME280;3204;42.698;23.298;2022-10-15T13:47:48;95197.81;;;18.41;53.99
6343;BME280;3204;42.698;23.298;2022-10-15T13:50:24;95200.03;;;18.23;54.55
6343;BME280;3204;42.698;23.298;2022-10-15T13:55:38;95188.22;;;18.07;54.68
6343;BME280;3204;42.698;23.298;2022-10-15T14:01:09;95197.88;;;17.89;54.97
6343;BME280;3204;42.698;23.298;2022-10-15T14:03:45;95199.19;;;17.80;55.58
6343;BME280;3204;42.698;23.298;2022-10-15T14:06:19;95201.22;;;17.83;55.44
6343;BME280;3204;42.698;23.298;2022-10-15T14:08:47;95189.25;;;17.75;55.38
6343;BME280;3204;42.698;23.298;2022-10-15T14:11:13;95196.19;;;17.57;55.91
6343;BME280;3204;42.698;23.298;2022-10-15T14:13:50;95186.59;;;17.39;56.37
6343;BME280;3204;42.698;23.298;2022-10-15T14:19:06;95190.72;;;17.21;56.99
6343;BME280;3204;42.698;23.298;2022-10-15T14:21:33;95184.44;;;17.09;57.16
6343;BME280;3204;42.698;23.298;2022-10-15T14:24:10;95193.47;;;16.97;57.56
6343;BME280;3204;42.698;23.298;2022-10-15T14:26:37;95179.50;;;16.90;57.87
6343;BME280;3204;42.698;23.298;2022-10-15T14:29:04;95174.72;;;16.75;57.92
6343;BME280;3204;42.698;23.298;2022-10-15T14:31:43;95179.50;;;16.66;58.31
6343;BME280;3204;42.698;23.298;2022-10-15T14:37:00;95187.84;;;16.58;58.63
6343;BME280;3204;42.698;23.298;2022-10-15T14:39:34;95189.31;;;16.55;58.63
6343;BME280;3204;42.698;23.298;2022-10-15T14:42:05;95191.94;;;16.63;58.51
6343;BME280;3204;42.698;23.298;2022-10-15T14:47:17;95194.13;;;16.70;58.56
6343;BME280;3204;42.698;23.298;2022-10-15T14:49:44;95203.50;;;16.69;58.75
6343;BME280;3204;42.698;23.298;2022-10-15T14:52:15;95202.56;;;16.65;58.76
6343;BME280;3204;42.698;23.298;2022-10-15T14:54:44;95200.41;;;16.71;58.79
6343;BME280;3204;42.698;23.298;2022-10-15T14:57:23;95220.81;;;16.61;58.46
6343;BME280;3204;42.698;23.298;2022-10-15T14:59:53;95206.19;;;16.45;59.20
6343;BME280;3204;42.698;23.298;2022-10-15T15:02:21;95203.03;;;16.34;59.52
6343;BME280;3204;42.698;23.298;2022-10-15T15:07:36;95216.50;;;16.27;59.97
6343;BME280;3204;42.698;23.298;2022-10-15T15:10:04;95225.59;;;16.19;60.25
6343;BME280;3204;42.698;23.298;2022-10-15T15:12:30;95224.31;;;16.17;60.18
6343;BME280;3204;42.698;23.298;2022-10-15T15:14:56;95228.88;;;16.13;60.74
6343;BME280;3204;42.698;23.298;2022-10-15T15:17:23;95228.84;;;16.01;61.11
6343;BME280;3204;42.698;23.298;2022-10-15T15:19:53;95228.22;;;15.95;61.05
6343;BME280;3204;42.698;23.298;2022-10-15T15:22:31;95230.91;;;15.83;61.27
6343;BME280;3204;42.698;23.298;2022-10-15T15:24:59;95240.38;;;15.86;61.20
6343;BME280;3204;42.698;23.298;2022-10-15T15:27:30;95239.19;;;15.75;61.38
6343;BME280;3204;42.698;23.298;2022-10-15T15:30:01;95231.19;;;15.70;61.65
6343;BME280;3204;42.698;23.298;2022-10-15T15:32:27;95242.97;;;15.62;61.84
6343;BME280;3204;42.698;23.298;2022-10-15T15:34:53;95243.53;;;15.55;62.01
6343;BME280;3204;42.698;23.298;2022-10-15T15:37:21;95243.44;;;15.43;62.28
6343;BME280;3204;42.698;23.298;2022-10-15T15:43:16;95252.97;;;15.37;62.46